Girona, Spain

7:33 AM CEST on October 25, 2014 (GMT +0200)
Salitja | Change Station
CLOSE
Current Station
Personal Weather Station
Location: Vilobi d'Onyar, CT
Elevation: 479 ft
Nearby Weather Stations

Elev 479 ft 41.91 °N, 2.74 °E | Updated 6 minutes ago

Clear
Clear
52.5 °F
Feels Like 52.5 °F
N
0.0
Wind Variable Wind from WNW
Gusts 0.0 mph

Today
High -- | Low -- °F
--% Chance of Precip.
Yesterday
High -- | Low -- °F
Precip. -- in
8:12 AM 6:52 PM
New Moon, 2% visible
Pressure 30.04 in
Visibility -9999.0 miles
Clouds
Dew Point 48 °F
Humidity 83%
Rainfall 0.00 in
Snow Depth Not available.
UV Not available.
Pollen Not available.
Air Quality Not available.
Flu Activity Not available.
METAR LEGE 250500Z 00000KT CAVOK 10/10 Q1017

More Conditions Fewer Conditions

Pressure 30.04 in
Visibility -9999.0 miles
Clouds
Dew Point 48 °F
Humidity 83%
Rainfall 0.00 in
Snow Depth Not available.
UV Not available.
Pollen Not available.
Air Quality Not available.
Flu Activity Not available.
METAR LEGE 250500Z 00000KT CAVOK 10/10 Q1017

More Conditions Fewer Conditions

10-Day Weather Forecast

Almanac

Astronomy

Oct. 25, 2014 Rise Set
Actual Time 8:12 AM CEST 6:52 PM CEST
Civil Twilight 7:44 AM CEST 7:21 PM CEST
Nautical Twilight 7:11 AM CEST 7:53 PM CEST
Astronomical Twilight 6:39 AM CEST 8:26 PM CEST
Moon 9:37 AM CEST 8:03 PM CEST
Length Of Visible Light 11h 37m
Length of Day
10h 40m
Tomorrow will be 2m 36s shorter.
New Moon, 2% of the Moon is Illuminated
Today
New Moon
Oct 30
First Quarter
Nov 6
Full
Nov 14
Last Quarter
Nov 22
New

Yesterday's Extremes

Country Highs Country Lows

Community

WunderPhotos

Upload Photos

1,764,785 photos uploaded!

Nearby

Snow Depth

Not available.

Earthquake Activity

City Distance Mag. Time & Date
No recent earthquake activity has been reported nearby.
Minimum magnitude displayed is 2.5.

Coastal Water Temperatures

Place Temperature
No Stations Reporting

Nearby Weather Stations